sensor_id;sensor_type;location;lat;lon;timestamp;P1;durP1;ratioP1;P2;durP2;ratioP2
12631;SDS011;6381;45.748;12.106;2022-09-09T00:01:20;4.43;;;3.08;;
12631;SDS011;6381;45.748;12.106;2022-09-09T00:04:02;5.22;;;3.28;;
12631;SDS011;6381;45.748;12.106;2022-09-09T00:06:43;4.15;;;3.13;;
12631;SDS011;6381;45.748;12.106;2022-09-09T00:09:15;3.75;;;3.20;;
12631;SDS011;6381;45.748;12.106;2022-09-09T00:11:47;4.72;;;3.30;;
12631;SDS011;6381;45.748;12.106;2022-09-09T00:14:22;4.00;;;3.30;;
12631;SDS011;6381;45.748;12.106;2022-09-09T00:17:00;4.97;;;3.33;;
12631;SDS011;6381;45.748;12.106;2022-09-09T00:19:33;4.13;;;3.67;;
12631;SDS011;6381;45.748;12.106;2022-09-09T00:22:14;5.05;;;3.50;;
12631;SDS011;6381;45.748;12.106;2022-09-09T00:24:46;4.80;;;3.65;;
12631;SDS011;6381;45.748;12.106;2022-09-09T00:27:23;6.70;;;3.92;;
12631;SDS011;6381;45.748;12.106;2022-09-09T00:29:58;4.45;;;3.90;;
12631;SDS011;6381;45.748;12.106;2022-09-09T00:32:40;5.60;;;3.65;;
12631;SDS011;6381;45.748;12.106;2022-09-09T00:35:14;4.78;;;3.80;;
12631;SDS011;6381;45.748;12.106;2022-09-09T00:37:46;5.03;;;3.85;;
12631;SDS011;6381;45.748;12.106;2022-09-09T00:40:21;5.97;;;4.07;;
12631;SDS011;6381;45.748;12.106;2022-09-09T00:42:57;6.35;;;4.18;;
12631;SDS011;6381;45.748;12.106;2022-09-09T00:45:50;5.15;;;3.90;;
12631;SDS011;6381;45.748;12.106;2022-09-09T00:48:38;4.40;;;4.00;;
12631;SDS011;6381;45.748;12.106;2022-09-09T00:51:21;4.28;;;3.72;;
12631;SDS011;6381;45.748;12.106;2022-09-09T00:53:58;5.85;;;3.90;;
12631;SDS011;6381;45.748;12.106;2022-09-09T00:56:41;4.72;;;3.53;;
12631;SDS011;6381;45.748;12.106;2022-09-09T00:59:22;6.38;;;4.10;;
12631;SDS011;6381;45.748;12.106;2022-09-09T01:01:59;4.72;;;3.70;;
12631;SDS011;6381;45.748;12.106;2022-09-09T01:04:29;5.22;;;3.83;;
12631;SDS011;6381;45.748;12.106;2022-09-09T01:07:03;5.68;;;3.35;;
12631;SDS011;6381;45.748;12.106;2022-09-09T01:09:45;5.68;;;3.70;;
12631;SDS011;6381;45.748;12.106;2022-09-09T01:12:30;6.43;;;3.70;;
12631;SDS011;6381;45.748;12.106;2022-09-09T01:15:11;5.05;;;3.67;;
12631;SDS011;6381;45.748;12.106;2022-09-09T01:17:53;6.45;;;4.03;;
12631;SDS011;6381;45.748;12.106;2022-09-09T01:20:31;5.95;;;3.70;;
12631;SDS011;6381;45.748;12.106;2022-09-09T01:23:12;4.68;;;3.85;;
12631;SDS011;6381;45.748;12.106;2022-09-09T01:26:27;6.40;;;3.58;;
12631;SDS011;6381;45.748;12.106;2022-09-09T01:29:02;4.82;;;3.55;;
12631;SDS011;6381;45.748;12.106;2022-09-09T01:31:38;4.43;;;3.47;;
12631;SDS011;6381;45.748;12.106;2022-09-09T01:34:10;5.10;;;3.72;;
12631;SDS011;6381;45.748;12.106;2022-09-09T01:36:42;6.05;;;3.40;;
12631;SDS011;6381;45.748;12.106;2022-09-09T01:39:13;4.97;;;3.25;;
12631;SDS011;6381;45.748;12.106;2022-09-09T01:41:45;4.03;;;3.08;;
12631;SDS011;6381;45.748;12.106;2022-09-09T01:44:17;3.38;;;3.08;;
12631;SDS011;6381;45.748;12.106;2022-09-09T01:46:47;4.88;;;2.92;;
12631;SDS011;6381;45.748;12.106;2022-09-09T01:49:19;4.28;;;3.10;;
12631;SDS011;6381;45.748;12.106;2022-09-09T01:51:50;4.93;;;3.30;;
12631;SDS011;6381;45.748;12.106;2022-09-09T01:54:28;4.78;;;3.38;;
12631;SDS011;6381;45.748;12.106;2022-09-09T01:57:06;4.50;;;3.60;;
12631;SDS011;6381;45.748;12.106;2022-09-09T01:59:48;3.95;;;2.90;;
12631;SDS011;6381;45.748;12.106;2022-09-09T02:02:30;5.25;;;3.40;;
12631;SDS011;6381;45.748;12.106;2022-09-09T02:05:13;5.10;;;3.45;;
12631;SDS011;6381;45.748;12.106;2022-09-09T02:07:52;4.53;;;3.30;;
12631;SDS011;6381;45.748;12.106;2022-09-09T02:10:35;5.68;;;3.60;;
12631;SDS011;6381;45.748;12.106;2022-09-09T02:13:19;4.32;;;3.17;;
12631;SDS011;6381;45.748;12.106;2022-09-09T02:15:52;4.70;;;3.08;;
12631;SDS011;6381;45.748;12.106;2022-09-09T02:18:26;4.75;;;3.28;;
12631;SDS011;6381;45.748;12.106;2022-09-09T02:20:58;3.75;;;3.15;;
12631;SDS011;6381;45.748;12.106;2022-09-09T02:23:27;4.72;;;3.17;;
12631;SDS011;6381;45.748;12.106;2022-09-09T02:25:58;3.90;;;3.22;;
12631;SDS011;6381;45.748;12.106;2022-09-09T02:28:29;4.78;;;3.25;;
12631;SDS011;6381;45.748;12.106;2022-09-09T02:31:01;5.72;;;3.40;;
12631;SDS011;6381;45.748;12.106;2022-09-09T02:33:38;4.22;;;3.47;;
12631;SDS011;6381;45.748;12.106;2022-09-09T02:36:10;4.60;;;3.50;;
12631;SDS011;6381;45.748;12.106;2022-09-09T02:38:45;4.95;;;3.40;;
12631;SDS011;6381;45.748;12.106;2022-09-09T02:41:25;3.72;;;3.20;;
12631;SDS011;6381;45.748;12.106;2022-09-09T02:44:00;6.28;;;3.75;;
12631;SDS011;6381;45.748;12.106;2022-09-09T02:46:36;3.85;;;3.22;;
12631;SDS011;6381;45.748;12.106;2022-09-09T02:49:25;4.47;;;3.40;;
12631;SDS011;6381;45.748;12.106;2022-09-09T02:52:04;5.85;;;3.70;;
12631;SDS011;6381;45.748;12.106;2022-09-09T02:54:37;4.82;;;3.00;;
12631;SDS011;6381;45.748;12.106;2022-09-09T02:57:11;3.58;;;3.20;;
12631;SDS011;6381;45.748;12.106;2022-09-09T02:59:47;5.50;;;3.40;;
12631;SDS011;6381;45.748;12.106;2022-09-09T03:02:18;3.55;;;3.08;;
12631;SDS011;6381;45.748;12.106;2022-09-09T03:04:53;5.97;;;3.55;;
12631;SDS011;6381;45.748;12.106;2022-09-09T03:07:22;5.57;;;3.75;;
12631;SDS011;6381;45.748;12.106;2022-09-09T03:09:52;6.15;;;3.35;;
12631;SDS011;6381;45.748;12.106;2022-09-09T03:12:24;4.05;;;3.53;;
12631;SDS011;6381;45.748;12.106;2022-09-09T03:14:55;3.50;;;2.95;;
12631;SDS011;6381;45.748;12.106;2022-09-09T03:17:24;5.28;;;3.20;;
12631;SDS011;6381;45.748;12.106;2022-09-09T03:19:56;5.97;;;3.10;;
12631;SDS011;6381;45.748;12.106;2022-09-09T03:22:26;5.57;;;2.80;;
12631;SDS011;6381;45.748;12.106;2022-09-09T03:24:59;5.15;;;3.00;;
12631;SDS011;6381;45.748;12.106;2022-09-09T03:27:29;5.00;;;3.05;;
12631;SDS011;6381;45.748;12.106;2022-09-09T03:29:59;4.32;;;2.97;;
12631;SDS011;6381;45.748;12.106;2022-09-09T03:32:30;3.45;;;3.10;;
12631;SDS011;6381;45.748;12.106;2022-09-09T03:34:59;5.32;;;3.10;;
12631;SDS011;6381;45.748;12.106;2022-09-09T03:37:28;3.92;;;3.13;;
12631;SDS011;6381;45.748;12.106;2022-09-09T03:39:58;3.47;;;3.00;;
12631;SDS011;6381;45.748;12.106;2022-09-09T03:42:27;4.57;;;3.63;;
12631;SDS011;6381;45.748;12.106;2022-09-09T03:45:00;4.90;;;3.33;;
12631;SDS011;6381;45.748;12.106;2022-09-09T03:47:31;4.00;;;2.92;;
12631;SDS011;6381;45.748;12.106;2022-09-09T03:50:04;6.30;;;3.42;;
12631;SDS011;6381;45.748;12.106;2022-09-09T03:52:40;5.47;;;3.30;;
12631;SDS011;6381;45.748;12.106;2022-09-09T03:55:17;5.70;;;3.58;;
12631;SDS011;6381;45.748;12.106;2022-09-09T03:57:46;5.45;;;3.63;;
12631;SDS011;6381;45.748;12.106;2022-09-09T04:00:17;5.65;;;3.47;;
12631;SDS011;6381;45.748;12.106;2022-09-09T04:02:50;5.22;;;3.47;;
12631;SDS011;6381;45.748;12.106;2022-09-09T04:05:20;5.35;;;3.47;;
12631;SDS011;6381;45.748;12.106;2022-09-09T04:07:49;3.97;;;3.15;;
12631;SDS011;6381;45.748;12.106;2022-09-09T04:10:20;5.32;;;3.30;;
12631;SDS011;6381;45.748;12.106;2022-09-09T04:12:49;5.88;;;3.45;;
12631;SDS011;6381;45.748;12.106;2022-09-09T04:15:22;4.55;;;3.40;;
12631;SDS011;6381;45.748;12.106;2022-09-09T04:17:50;5.40;;;3.42;;
12631;SDS011;6381;45.748;12.106;2022-09-09T04:20:19;4.80;;;3.40;;
12631;SDS011;6381;45.748;12.106;2022-09-09T04:22:48;5.22;;;3.47;;
12631;SDS011;6381;45.748;12.106;2022-09-09T04:25:17;4.65;;;3.50;;
12631;SDS011;6381;45.748;12.106;2022-09-09T04:27:46;6.88;;;3.60;;
12631;SDS011;6381;45.748;12.106;2022-09-09T04:30:18;5.90;;;3.40;;
12631;SDS011;6381;45.748;12.106;2022-09-09T04:32:49;5.20;;;3.60;;
12631;SDS011;6381;45.748;12.106;2022-09-09T04:35:17;7.53;;;3.70;;
12631;SDS011;6381;45.748;12.106;2022-09-09T04:37:46;4.70;;;3.55;;
12631;SDS011;6381;45.748;12.106;2022-09-09T04:40:16;5.55;;;3.47;;
12631;SDS011;6381;45.748;12.106;2022-09-09T04:42:45;8.07;;;3.90;;
12631;SDS011;6381;45.748;12.106;2022-09-09T04:45:17;7.20;;;4.00;;
12631;SDS011;6381;45.748;12.106;2022-09-09T04:47:46;6.38;;;3.97;;
12631;SDS011;6381;45.748;12.106;2022-09-09T04:50:17;6.20;;;3.65;;
12631;SDS011;6381;45.748;12.106;2022-09-09T04:52:46;6.22;;;3.65;;
12631;SDS011;6381;45.748;12.106;2022-09-09T04:55:15;4.70;;;4.05;;
12631;SDS011;6381;45.748;12.106;2022-09-09T04:57:44;6.15;;;3.60;;
12631;SDS011;6381;45.748;12.106;2022-09-09T05:00:14;4.95;;;3.67;;
12631;SDS011;6381;45.748;12.106;2022-09-09T05:02:43;9.23;;;4.40;;
12631;SDS011;6381;45.748;12.106;2022-09-09T05:05:13;5.88;;;3.50;;
12631;SDS011;6381;45.748;12.106;2022-09-09T05:07:43;4.95;;;3.90;;
12631;SDS011;6381;45.748;12.106;2022-09-09T05:10:14;5.47;;;3.95;;
12631;SDS011;6381;45.748;12.106;2022-09-09T05:12:51;7.28;;;3.90;;
12631;SDS011;6381;45.748;12.106;2022-09-09T05:15:24;8.60;;;4.25;;
12631;SDS011;6381;45.748;12.106;2022-09-09T05:17:56;7.18;;;3.97;;
12631;SDS011;6381;45.748;12.106;2022-09-09T05:20:28;5.90;;;3.67;;
12631;SDS011;6381;45.748;12.106;2022-09-09T05:22:59;6.43;;;4.15;;
12631;SDS011;6381;45.748;12.106;2022-09-09T05:25:31;5.05;;;4.00;;
12631;SDS011;6381;45.748;12.106;2022-09-09T05:28:00;5.78;;;3.80;;
12631;SDS011;6381;45.748;12.106;2022-09-09T05:30:29;5.55;;;3.92;;
12631;SDS011;6381;45.748;12.106;2022-09-09T05:33:02;4.85;;;3.90;;
12631;SDS011;6381;45.748;12.106;2022-09-09T05:35:31;5.45;;;3.70;;
12631;SDS011;6381;45.748;12.106;2022-09-09T05:38:01;5.95;;;4.07;;
12631;SDS011;6381;45.748;12.106;2022-09-09T05:40:31;5.07;;;3.58;;
12631;SDS011;6381;45.748;12.106;2022-09-09T05:43:01;4.60;;;3.40;;
12631;SDS011;6381;45.748;12.106;2022-09-09T05:45:30;6.28;;;4.10;;
12631;SDS011;6381;45.748;12.106;2022-09-09T05:47:59;6.20;;;4.00;;
12631;SDS011;6381;45.748;12.106;2022-09-09T05:50:29;5.22;;;3.83;;
12631;SDS011;6381;45.748;12.106;2022-09-09T05:52:58;6.18;;;4.00;;
12631;SDS011;6381;45.748;12.106;2022-09-09T05:55:29;6.20;;;4.07;;
12631;SDS011;6381;45.748;12.106;2022-09-09T05:57:58;7.63;;;4.40;;
12631;SDS011;6381;45.748;12.106;2022-09-09T06:00:29;5.32;;;3.83;;
12631;SDS011;6381;45.748;12.106;2022-09-09T06:02:59;5.13;;;3.65;;
12631;SDS011;6381;45.748;12.106;2022-09-09T06:05:28;6.45;;;4.03;;
12631;SDS011;6381;45.748;12.106;2022-09-09T06:07:57;7.72;;;3.90;;
12631;SDS011;6381;45.748;12.106;2022-09-09T06:10:26;8.23;;;3.75;;
12631;SDS011;6381;45.748;12.106;2022-09-09T06:12:56;8.73;;;3.85;;
12631;SDS011;6381;45.748;12.106;2022-09-09T06:15:25;7.00;;;3.95;;
12631;SDS011;6381;45.748;12.106;2022-09-09T06:17:57;5.53;;;3.47;;
12631;SDS011;6381;45.748;12.106;2022-09-09T06:20:26;6.32;;;3.80;;
12631;SDS011;6381;45.748;12.106;2022-09-09T06:22:57;7.38;;;4.50;;
12631;SDS011;6381;45.748;12.106;2022-09-09T06:25:26;6.43;;;3.95;;
12631;SDS011;6381;45.748;12.106;2022-09-09T06:27:56;5.65;;;4.18;;
12631;SDS011;6381;45.748;12.106;2022-09-09T06:30:26;7.18;;;3.72;;
12631;SDS011;6381;45.748;12.106;2022-09-09T06:32:57;5.95;;;3.92;;
12631;SDS011;6381;45.748;12.106;2022-09-09T06:35:26;7.63;;;3.60;;
12631;SDS011;6381;45.748;12.106;2022-09-09T06:37:55;8.20;;;3.83;;
12631;SDS011;6381;45.748;12.106;2022-09-09T06:40:25;6.80;;;3.63;;
12631;SDS011;6381;45.748;12.106;2022-09-09T06:42:56;5.70;;;4.00;;
12631;SDS011;6381;45.748;12.106;2022-09-09T06:45:39;9.40;;;3.70;;
12631;SDS011;6381;45.748;12.106;2022-09-09T06:48:08;4.60;;;3.80;;
12631;SDS011;6381;45.748;12.106;2022-09-09T06:50:37;6.25;;;3.97;;
12631;SDS011;6381;45.748;12.106;2022-09-09T06:53:05;4.50;;;3.58;;
12631;SDS011;6381;45.748;12.106;2022-09-09T06:55:34;6.70;;;3.55;;
12631;SDS011;6381;45.748;12.106;2022-09-09T06:58:08;6.32;;;3.72;;
12631;SDS011;6381;45.748;12.106;2022-09-09T07:00:37;5.63;;;3.80;;
12631;SDS011;6381;45.748;12.106;2022-09-09T07:03:06;6.28;;;3.63;;
12631;SDS011;6381;45.748;12.106;2022-09-09T07:05:35;6.75;;;3.63;;
12631;SDS011;6381;45.748;12.106;2022-09-09T07:08:05;7.60;;;3.80;;
12631;SDS011;6381;45.748;12.106;2022-09-09T07:10:33;6.03;;;3.85;;
12631;SDS011;6381;45.748;12.106;2022-09-09T07:13:02;6.72;;;3.85;;
12631;SDS011;6381;45.748;12.106;2022-09-09T07:15:33;7.43;;;3.92;;
12631;SDS011;6381;45.748;12.106;2022-09-09T07:18:02;7.28;;;4.28;;
12631;SDS011;6381;45.748;12.106;2022-09-09T07:20:33;5.68;;;3.45;;
12631;SDS011;6381;45.748;12.106;2022-09-09T07:23:04;5.55;;;4.05;;
12631;SDS011;6381;45.748;12.106;2022-09-09T07:25:33;6.38;;;3.30;;
12631;SDS011;6381;45.748;12.106;2022-09-09T07:28:02;4.38;;;3.40;;
12631;SDS011;6381;45.748;12.106;2022-09-09T07:30:32;6.70;;;3.20;;
12631;SDS011;6381;45.748;12.106;2022-09-09T07:33:01;4.28;;;3.28;;
12631;SDS011;6381;45.748;12.106;2022-09-09T07:35:31;7.53;;;3.40;;
12631;SDS011;6381;45.748;12.106;2022-09-09T07:38:00;8.73;;;3.53;;
12631;SDS011;6381;45.748;12.106;2022-09-09T07:40:29;7.22;;;3.78;;
12631;SDS011;6381;45.748;12.106;2022-09-09T07:42:58;5.45;;;3.42;;
12631;SDS011;6381;45.748;12.106;2022-09-09T07:45:27;5.10;;;3.38;;
12631;SDS011;6381;45.748;12.106;2022-09-09T07:48:01;3.80;;;3.22;;
12631;SDS011;6381;45.748;12.106;2022-09-09T07:50:31;6.93;;;3.38;;
12631;SDS011;6381;45.748;12.106;2022-09-09T07:53:00;8.35;;;3.55;;
12631;SDS011;6381;45.748;12.106;2022-09-09T07:55:29;6.55;;;3.50;;
12631;SDS011;6381;45.748;12.106;2022-09-09T07:57:58;10.52;;;3.33;;
12631;SDS011;6381;45.748;12.106;2022-09-09T08:00:27;4.68;;;3.15;;
12631;SDS011;6381;45.748;12.106;2022-09-09T08:02:57;5.72;;;3.08;;
12631;SDS011;6381;45.748;12.106;2022-09-09T08:05:29;5.28;;;2.95;;
12631;SDS011;6381;45.748;12.106;2022-09-09T08:08:01;6.55;;;2.92;;
12631;SDS011;6381;45.748;12.106;2022-09-09T08:10:31;4.32;;;2.90;;
12631;SDS011;6381;45.748;12.106;2022-09-09T08:13:01;4.53;;;3.03;;
12631;SDS011;6381;45.748;12.106;2022-09-09T08:15:47;8.82;;;3.08;;
12631;SDS011;6381;45.748;12.106;2022-09-09T08:18:18;4.20;;;3.15;;
12631;SDS011;6381;45.748;12.106;2022-09-09T08:20:48;7.55;;;3.17;;
12631;SDS011;6381;45.748;12.106;2022-09-09T08:23:18;5.93;;;3.25;;
12631;SDS011;6381;45.748;12.106;2022-09-09T08:25:48;3.42;;;2.80;;
12631;SDS011;6381;45.748;12.106;2022-09-09T08:28:17;5.28;;;3.22;;
12631;SDS011;6381;45.748;12.106;2022-09-09T08:30:47;5.53;;;2.97;;
12631;SDS011;6381;45.748;12.106;2022-09-09T08:33:16;5.40;;;3.60;;
12631;SDS011;6381;45.748;12.106;2022-09-09T08:35:50;4.60;;;3.05;;
12631;SDS011;6381;45.748;12.106;2022-09-09T08:38:20;5.20;;;3.25;;
12631;SDS011;6381;45.748;12.106;2022-09-09T08:40:50;9.80;;;2.83;;
12631;SDS011;6381;45.748;12.106;2022-09-09T08:43:27;7.45;;;2.97;;
12631;SDS011;6381;45.748;12.106;2022-09-09T08:46:00;6.65;;;3.10;;
12631;SDS011;6381;45.748;12.106;2022-09-09T08:48:44;6.00;;;2.78;;
12631;SDS011;6381;45.748;12.106;2022-09-09T08:51:22;7.07;;;3.30;;
12631;SDS011;6381;45.748;12.106;2022-09-09T08:53:53;7.55;;;3.08;;
12631;SDS011;6381;45.748;12.106;2022-09-09T08:56:26;6.05;;;2.88;;
12631;SDS011;6381;45.748;12.106;2022-09-09T08:59:01;6.50;;;2.90;;
12631;SDS011;6381;45.748;12.106;2022-09-09T09:01:43;4.53;;;3.10;;
12631;SDS011;6381;45.748;12.106;2022-09-09T09:04:31;5.82;;;2.70;;
12631;SDS011;6381;45.748;12.106;2022-09-09T09:07:15;9.60;;;3.33;;
12631;SDS011;6381;45.748;12.106;2022-09-09T09:10:01;6.13;;;2.92;;
12631;SDS011;6381;45.748;12.106;2022-09-09T09:12:59;5.82;;;3.20;;
12631;SDS011;6381;45.748;12.106;2022-09-09T09:15:31;7.88;;;3.50;;
12631;SDS011;6381;45.748;12.106;2022-09-09T09:18:07;5.18;;;3.10;;
12631;SDS011;6381;45.748;12.106;2022-09-09T09:20:42;6.40;;;3.20;;
12631;SDS011;6381;45.748;12.106;2022-09-09T09:23:21;4.07;;;3.15;;
12631;SDS011;6381;45.748;12.106;2022-09-09T09:25:55;5.05;;;3.60;;
12631;SDS011;6381;45.748;12.106;2022-09-09T09:28:29;6.10;;;3.13;;
12631;SDS011;6381;45.748;12.106;2022-09-09T09:31:07;5.90;;;3.10;;
12631;SDS011;6381;45.748;12.106;2022-09-09T09:33:43;4.78;;;3.28;;
12631;SDS011;6381;45.748;12.106;2022-09-09T09:36:18;7.05;;;3.50;;
12631;SDS011;6381;45.748;12.106;2022-09-09T09:38:53;4.93;;;3.13;;
12631;SDS011;6381;45.748;12.106;2022-09-09T09:41:45;3.80;;;3.40;;
12631;SDS011;6381;45.748;12.106;2022-09-09T09:44:25;8.02;;;3.78;;
12631;SDS011;6381;45.748;12.106;2022-09-09T09:47:07;5.82;;;3.58;;
12631;SDS011;6381;45.748;12.106;2022-09-09T09:49:50;4.88;;;3.13;;
12631;SDS011;6381;45.748;12.106;2022-09-09T09:52:21;3.80;;;3.10;;
12631;SDS011;6381;45.748;12.106;2022-09-09T09:54:54;5.53;;;3.92;;
12631;SDS011;6381;45.748;12.106;2022-09-09T09:57:25;8.27;;;3.70;;
12631;SDS011;6381;45.748;12.106;2022-09-09T10:00:04;4.05;;;3.65;;
12631;SDS011;6381;45.748;12.106;2022-09-09T10:02:43;5.35;;;3.83;;
12631;SDS011;6381;45.748;12.106;2022-09-09T10:05:18;4.90;;;3.63;;
12631;SDS011;6381;45.748;12.106;2022-09-09T10:08:03;6.70;;;3.65;;
12631;SDS011;6381;45.748;12.106;2022-09-09T10:10:36;6.70;;;3.72;;
12631;SDS011;6381;45.748;12.106;2022-09-09T10:13:15;8.05;;;3.30;;
12631;SDS011;6381;45.748;12.106;2022-09-09T10:15:53;5.32;;;3.10;;
12631;SDS011;6381;45.748;12.106;2022-09-09T10:18:42;6.60;;;3.20;;
12631;SDS011;6381;45.748;12.106;2022-09-09T10:21:29;6.63;;;3.10;;
12631;SDS011;6381;45.748;12.106;2022-09-09T10:24:14;4.22;;;3.22;;
12631;SDS011;6381;45.748;12.106;2022-09-09T10:27:00;4.55;;;3.00;;
12631;SDS011;6381;45.748;12.106;2022-09-09T10:29:38;6.78;;;2.67;;
12631;SDS011;6381;45.748;12.106;2022-09-09T10:32:28;5.15;;;2.60;;
12631;SDS011;6381;45.748;12.106;2022-09-09T10:35:09;3.20;;;2.60;;
12631;SDS011;6381;45.748;12.106;2022-09-09T10:37:44;3.05;;;2.40;;
12631;SDS011;6381;45.748;12.106;2022-09-09T10:40:33;4.93;;;2.50;;
12631;SDS011;6381;45.748;12.106;2022-09-09T10:43:11;5.30;;;2.85;;
12631;SDS011;6381;45.748;12.106;2022-09-09T10:45:49;5.97;;;2.72;;
12631;SDS011;6381;45.748;12.106;2022-09-09T10:48:30;3.55;;;2.47;;
12631;SDS011;6381;45.748;12.106;2022-09-09T10:51:09;4.88;;;2.92;;
12631;SDS011;6381;45.748;12.106;2022-09-09T10:53:53;4.25;;;2.53;;
12631;SDS011;6381;45.748;12.106;2022-09-09T10:56:36;4.90;;;2.70;;
12631;SDS011;6381;45.748;12.106;2022-09-09T10:59:11;4.32;;;3.00;;
12631;SDS011;6381;45.748;12.106;2022-09-09T11:01:45;7.50;;;2.70;;
12631;SDS011;6381;45.748;12.106;2022-09-09T11:04:21;4.88;;;2.53;;
12631;SDS011;6381;45.748;12.106;2022-09-09T11:06:53;5.93;;;2.80;;
12631;SDS011;6381;45.748;12.106;2022-09-09T11:09:24;6.75;;;2.53;;
12631;SDS011;6381;45.748;12.106;2022-09-09T11:11:55;2.80;;;2.47;;
12631;SDS011;6381;45.748;12.106;2022-09-09T11:14:28;5.75;;;2.90;;
12631;SDS011;6381;45.748;12.106;2022-09-09T11:17:04;4.93;;;2.63;;
12631;SDS011;6381;45.748;12.106;2022-09-09T11:19:38;3.47;;;2.40;;
12631;SDS011;6381;45.748;12.106;2022-09-09T11:22:14;3.90;;;2.35;;
12631;SDS011;6381;45.748;12.106;2022-09-09T11:24:51;6.20;;;2.72;;
12631;SDS011;6381;45.748;12.106;2022-09-09T11:27:26;3.45;;;2.60;;
12631;SDS011;6381;45.748;12.106;2022-09-09T11:33:18;5.50;;;2.70;;
12631;SDS011;6381;45.748;12.106;2022-09-09T11:36:11;4.47;;;2.33;;
12631;SDS011;6381;45.748;12.106;2022-09-09T11:38:56;3.58;;;2.70;;
12631;SDS011;6381;45.748;12.106;2022-09-09T11:41:34;2.83;;;2.42;;
12631;SDS011;6381;45.748;12.106;2022-09-09T11:44:09;3.38;;;2.85;;
12631;SDS011;6381;45.748;12.106;2022-09-09T11:46:41;4.40;;;2.45;;
12631;SDS011;6381;45.748;12.106;2022-09-09T11:49:22;4.47;;;2.85;;
12631;SDS011;6381;45.748;12.106;2022-09-09T11:51:55;6.63;;;3.03;;
12631;SDS011;6381;45.748;12.106;2022-09-09T11:54:28;4.13;;;2.85;;
12631;SDS011;6381;45.748;12.106;2022-09-09T11:56:57;4.82;;;2.67;;
12631;SDS011;6381;45.748;12.106;2022-09-09T11:59:27;5.32;;;2.80;;
12631;SDS011;6381;45.748;12.106;2022-09-09T12:01:59;3.85;;;2.60;;
12631;SDS011;6381;45.748;12.106;2022-09-09T12:04:34;5.03;;;2.88;;
12631;SDS011;6381;45.748;12.106;2022-09-09T12:07:21;3.15;;;2.70;;
12631;SDS011;6381;45.748;12.106;2022-09-09T12:09:57;6.43;;;2.92;;
12631;SDS011;6381;45.748;12.106;2022-09-09T12:12:29;3.38;;;2.60;;
12631;SDS011;6381;45.748;12.106;2022-09-09T12:15:16;4.22;;;2.45;;
12631;SDS011;6381;45.748;12.106;2022-09-09T12:17:54;2.97;;;2.33;;
12631;SDS011;6381;45.748;12.106;2022-09-09T12:20:31;6.10;;;2.83;;
12631;SDS011;6381;45.748;12.106;2022-09-09T12:23:17;6.30;;;3.00;;
12631;SDS011;6381;45.748;12.106;2022-09-09T12:25:56;3.08;;;2.70;;
12631;SDS011;6381;45.748;12.106;2022-09-09T12:28:46;4.35;;;2.47;;
12631;SDS011;6381;45.748;12.106;2022-09-09T12:31:27;6.78;;;2.53;;
12631;SDS011;6381;45.748;12.106;2022-09-09T12:34:08;4.85;;;3.25;;
12631;SDS011;6381;45.748;12.106;2022-09-09T12:36:39;3.67;;;2.42;;
12631;SDS011;6381;45.748;12.106;2022-09-09T12:39:10;3.33;;;2.45;;
12631;SDS011;6381;45.748;12.106;2022-09-09T12:41:52;3.78;;;2.40;;
12631;SDS011;6381;45.748;12.106;2022-09-09T12:44:24;3.45;;;2.42;;
12631;SDS011;6381;45.748;12.106;2022-09-09T12:46:54;5.50;;;2.60;;
12631;SDS011;6381;45.748;12.106;2022-09-09T12:49:30;3.30;;;2.60;;
12631;SDS011;6381;45.748;12.106;2022-09-09T12:52:04;3.85;;;2.45;;
12631;SDS011;6381;45.748;12.106;2022-09-09T12:54:36;3.65;;;2.65;;
12631;SDS011;6381;45.748;12.106;2022-09-09T12:57:11;3.53;;;2.35;;
12631;SDS011;6381;45.748;12.106;2022-09-09T12:59:42;4.25;;;2.72;;
12631;SDS011;6381;45.748;12.106;2022-09-09T13:02:19;4.38;;;2.60;;
12631;SDS011;6381;45.748;12.106;2022-09-09T13:04:51;4.30;;;2.88;;
12631;SDS011;6381;45.748;12.106;2022-09-09T13:07:22;4.80;;;2.60;;
12631;SDS011;6381;45.748;12.106;2022-09-09T13:09:52;2.78;;;2.38;;
12631;SDS011;6381;45.748;12.106;2022-09-09T13:12:21;3.35;;;2.80;;
12631;SDS011;6381;45.748;12.106;2022-09-09T13:14:52;5.65;;;2.90;;
12631;SDS011;6381;45.748;12.106;2022-09-09T13:17:23;4.00;;;2.90;;
12631;SDS011;6381;45.748;12.106;2022-09-09T13:19:57;4.22;;;2.70;;
12631;SDS011;6381;45.748;12.106;2022-09-09T13:22:28;4.03;;;2.83;;
12631;SDS011;6381;45.748;12.106;2022-09-09T13:25:03;3.33;;;2.50;;
12631;SDS011;6381;45.748;12.106;2022-09-09T13:27:51;3.70;;;3.00;;
12631;SDS011;6381;45.748;12.106;2022-09-09T13:30:28;2.88;;;2.67;;
12631;SDS011;6381;45.748;12.106;2022-09-09T13:33:03;4.85;;;2.70;;
12631;SDS011;6381;45.748;12.106;2022-09-09T13:35:36;3.53;;;2.50;;
12631;SDS011;6381;45.748;12.106;2022-09-09T13:38:16;3.83;;;2.60;;
12631;SDS011;6381;45.748;12.106;2022-09-09T13:40:52;3.22;;;2.80;;
12631;SDS011;6381;45.748;12.106;2022-09-09T13:43:24;4.00;;;2.85;;
12631;SDS011;6381;45.748;12.106;2022-09-09T13:45:55;6.03;;;3.20;;
12631;SDS011;6381;45.748;12.106;2022-09-09T13:48:26;8.00;;;3.50;;
12631;SDS011;6381;45.748;12.106;2022-09-09T13:50:59;6.35;;;3.75;;
12631;SDS011;6381;45.748;12.106;2022-09-09T13:53:29;4.53;;;3.50;;
12631;SDS011;6381;45.748;12.106;2022-09-09T13:55:58;12.95;;;6.43;;
12631;SDS011;6381;45.748;12.106;2022-09-09T13:58:29;14.13;;;7.53;;
12631;SDS011;6381;45.748;12.106;2022-09-09T14:00:57;8.77;;;5.03;;
12631;SDS011;6381;45.748;12.106;2022-09-09T14:03:26;4.72;;;3.58;;
12631;SDS011;6381;45.748;12.106;2022-09-09T14:05:55;6.45;;;3.30;;
12631;SDS011;6381;45.748;12.106;2022-09-09T14:08:26;5.15;;;3.55;;
12631;SDS011;6381;45.748;12.106;2022-09-09T14:11:04;5.57;;;3.30;;
12631;SDS011;6381;45.748;12.106;2022-09-09T14:13:33;3.40;;;3.10;;
12631;SDS011;6381;45.748;12.106;2022-09-09T14:16:04;4.97;;;3.20;;
12631;SDS011;6381;45.748;12.106;2022-09-09T14:18:33;4.65;;;3.22;;
12631;SDS011;6381;45.748;12.106;2022-09-09T14:21:02;3.90;;;2.90;;
12631;SDS011;6381;45.748;12.106;2022-09-09T14:23:33;4.13;;;2.90;;
12631;SDS011;6381;45.748;12.106;2022-09-09T14:26:02;5.88;;;3.95;;
12631;SDS011;6381;45.748;12.106;2022-09-09T14:28:30;4.55;;;3.50;;
12631;SDS011;6381;45.748;12.106;2022-09-09T14:31:20;5.70;;;3.83;;
12631;SDS011;6381;45.748;12.106;2022-09-09T14:33:49;4.05;;;3.45;;
12631;SDS011;6381;45.748;12.106;2022-09-09T14:36:19;6.60;;;3.83;;
12631;SDS011;6381;45.748;12.106;2022-09-09T14:38:52;4.28;;;3.58;;
12631;SDS011;6381;45.748;12.106;2022-09-09T14:41:21;3.63;;;3.20;;
12631;SDS011;6381;45.748;12.106;2022-09-09T14:43:50;4.70;;;3.30;;
12631;SDS011;6381;45.748;12.106;2022-09-09T14:46:22;4.45;;;3.40;;
12631;SDS011;6381;45.748;12.106;2022-09-09T14:48:51;4.95;;;2.92;;
12631;SDS011;6381;45.748;12.106;2022-09-09T14:51:25;3.90;;;2.70;;
12631;SDS011;6381;45.748;12.106;2022-09-09T14:53:57;4.10;;;2.90;;
12631;SDS011;6381;45.748;12.106;2022-09-09T14:56:27;5.47;;;2.97;;
12631;SDS011;6381;45.748;12.106;2022-09-09T14:58:57;4.97;;;3.10;;
12631;SDS011;6381;45.748;12.106;2022-09-09T15:01:29;3.33;;;2.78;;
12631;SDS011;6381;45.748;12.106;2022-09-09T15:03:59;4.30;;;2.85;;
12631;SDS011;6381;45.748;12.106;2022-09-09T15:06:30;4.03;;;2.90;;
12631;SDS011;6381;45.748;12.106;2022-09-09T15:09:01;5.50;;;2.80;;
12631;SDS011;6381;45.748;12.106;2022-09-09T15:11:31;4.65;;;2.90;;
12631;SDS011;6381;45.748;12.106;2022-09-09T15:14:04;5.72;;;2.72;;
12631;SDS011;6381;45.748;12.106;2022-09-09T15:16:34;4.25;;;2.60;;
12631;SDS011;6381;45.748;12.106;2022-09-09T15:19:03;4.47;;;2.45;;
12631;SDS011;6381;45.748;12.106;2022-09-09T15:21:33;2.70;;;2.20;;
12631;SDS011;6381;45.748;12.106;2022-09-09T15:24:06;5.03;;;2.30;;
12631;SDS011;6381;45.748;12.106;2022-09-09T15:26:35;2.63;;;2.10;;
12631;SDS011;6381;45.748;12.106;2022-09-09T15:29:06;2.53;;;1.95;;
12631;SDS011;6381;45.748;12.106;2022-09-09T15:31:36;3.33;;;1.70;;